Time;durP1;ratioP1;P1;durP2;ratioP2;P2;SDS_P1;SDS_P2;PMS_P1;PMS_P2;Temp;Humidity;BMP_temperature;BMP_pressure;BME280_temperature;BME280_humidity;BME280_pressure;Samples;Min_cycle;Max_cycle;Signal;HPM_P1;HPM_P2
2023/05/25 00:00:09;;;;;;;37.67;11.35;;;;;;;-144.73;100.00;54469.28;5093887;28;20049;-68
2023/05/25 00:02:34;;;;;;;39.70;12.95;;;;;;;-144.73;100.00;54440.53;5093134;28;20027;-68
2023/05/25 00:05:01;;;;;;;36.42;12.52;;;;;;;-144.73;100.00;54446.69;5093670;28;20030;-69
2023/05/25 00:07:26;;;;;;;32.67;12.13;;;;;;;-144.73;100.00;54432.31;5094181;28;20424;-69
2023/05/25 00:09:52;;;;;;;55.42;12.88;;;;;;;-144.73;100.00;54454.91;5092997;28;20019;-68
2023/05/25 00:12:17;;;;;;;47.92;12.65;;;;;;;-144.73;100.00;54456.97;5093678;28;20039;-69
2023/05/25 00:14:42;;;;;;;39.53;11.88;;;;;;;-144.73;100.00;54415.91;5093793;28;20178;-67
2023/05/25 00:17:09;;;;;;;43.75;13.63;;;;;;;-144.73;100.00;54452.84;5093755;28;20039;-70
2023/05/25 00:19:35;;;;;;;41.75;10.35;;;;;;;-144.73;100.00;54426.16;5111418;28;20118;-70
2023/05/25 00:22:03;;;;;;;38.13;12.00;;;;;;;-144.73;100.00;54424.13;5110956;28;20059;-70
2023/05/25 00:24:31;;;;;;;37.20;11.60;;;;;;;-144.73;100.00;54415.91;5093360;28;20024;-68
2023/05/25 00:26:57;;;;;;;42.58;11.70;;;;;;;-144.73;100.00;54407.69;5092972;28;20180;-68
2023/05/25 00:29:23;;;;;;;32.42;10.60;;;;;;;-144.73;100.00;54440.53;5093670;28;20114;-68
2023/05/25 00:31:49;;;;;;;33.08;10.52;;;;;;;-144.73;100.00;54454.91;5092838;28;20039;-68
2023/05/25 00:34:15;;;;;;;39.97;11.13;;;;;;;-144.73;100.00;54448.75;5093566;28;20031;-68
2023/05/25 00:36:42;;;;;;;34.40;10.13;;;;;;;-144.73;100.00;54420.00;5092704;28;20043;-68
2023/05/25 00:39:08;;;;;;;39.45;11.15;;;;;;;-144.73;100.00;54415.91;5092892;28;20038;-68
2023/05/25 00:41:40;;;;;;;38.83;11.68;;;;;;;-144.73;100.00;54432.31;5092608;28;20493;-68
2023/05/25 00:44:06;;;;;;;37.20;10.57;;;;;;;-144.73;100.00;54428.22;5093401;28;20424;-68
2023/05/25 00:46:33;;;;;;;34.67;10.60;;;;;;;-144.73;100.00;54428.22;5092868;28;20044;-68
2023/05/25 00:48:59;;;;;;;47.00;11.98;;;;;;;-144.73;100.00;54434.38;5092979;28;20114;-68
2023/05/25 00:51:25;;;;;;;48.85;10.48;;;;;;;-144.73;100.00;54411.81;5110726;28;20055;-70
2023/05/25 00:53:51;;;;;;;40.28;10.07;;;;;;;-144.73;100.00;54469.28;5092410;28;20020;-69
2023/05/25 00:56:27;;;;;;;37.28;9.38;;;;;;;-144.73;100.00;54444.66;5092005;28;20084;-68
2023/05/25 00:58:55;;;;;;;44.60;11.15;;;;;;;-144.73;100.00;54454.91;5093012;28;20023;-68
2023/05/25 01:01:21;;;;;;;45.95;12.85;;;;;;;-144.73;100.00;54440.53;5092587;28;20035;-67
2023/05/25 01:03:53;;;;;;;48.15;10.82;;;;;;;-144.73;100.00;54411.81;5110841;28;20111;-68
2023/05/25 01:06:21;;;;;;;37.50;11.60;;;;;;;-144.73;100.00;54473.38;5092447;28;20043;-69
2023/05/25 01:08:51;;;;;;;54.35;12.68;;;;;;;-144.73;100.00;54415.91;5111018;28;20024;-68
2023/05/25 01:11:20;;;;;;;40.13;12.32;;;;;;;-144.73;100.00;54473.38;5110457;28;20050;-68
2023/05/25 01:13:48;;;;;;;36.42;11.32;;;;;;;-144.73;100.00;54407.69;5092278;28;20530;-68
2023/05/25 01:16:15;;;;;;;36.20;11.95;;;;;;;-144.73;100.00;54436.44;5092381;28;20042;-68
2023/05/25 01:18:40;;;;;;;33.45;11.95;;;;;;;-144.73;100.00;54432.31;5111006;28;20035;-68
2023/05/25 01:21:16;;;;;;;37.50;12.38;;;;;;;-144.73;100.00;54415.91;5110193;28;20028;-68
2023/05/25 01:23:49;;;;;;;37.63;11.80;;;;;;;-144.73;100.00;54461.06;5110763;28;20371;-68
2023/05/25 01:26:16;;;;;;;34.08;11.85;;;;;;;-144.73;100.00;54424.13;5092040;28;20051;-68
2023/05/25 01:28:49;;;;;;;36.83;13.25;;;;;;;-144.73;100.00;54477.47;5092934;28;20019;-68
2023/05/25 01:31:15;;;;;;;40.40;12.25;;;;;;;-144.73;100.00;54389.22;5109817;28;20103;-68
2023/05/25 01:33:43;;;;;;;47.10;12.65;;;;;;;-144.73;100.00;54432.31;5092477;28;20016;-68
2023/05/25 01:36:08;;;;;;;46.10;11.88;;;;;;;-144.73;100.00;54461.06;5092341;28;20038;-68
2023/05/25 01:38:35;;;;;;;48.13;14.55;;;;;;;-144.73;100.00;54420.00;5092339;28;20024;-68
2023/05/25 01:41:01;;;;;;;39.13;13.65;;;;;;;-144.73;100.00;54424.13;5110029;28;20107;-68
2023/05/25 01:43:26;;;;;;;58.47;15.80;;;;;;;-144.73;100.00;54424.13;5092170;28;20106;-68
2023/05/25 01:45:57;;;;;;;42.50;14.13;;;;;;;-144.73;100.00;54420.00;5092070;28;20059;-68
2023/05/25 01:48:52;;;;;;;49.25;15.05;;;;;;;-144.73;100.00;54444.66;5092018;28;20027;-68
2023/05/25 01:51:47;;;;;;;49.95;16.00;;;;;;;-144.73;100.00;54446.69;5092441;28;20031;-68
2023/05/25 01:54:19;;;;;;;42.10;16.35;;;;;;;-144.73;100.00;54452.84;5110481;28;20020;-68
2023/05/25 01:56:47;;;;;;;58.58;19.25;;;;;;;-144.73;100.00;54456.97;5091802;28;20436;-68
2023/05/25 01:59:15;;;;;;;61.13;17.40;;;;;;;-144.73;100.00;54444.66;5092522;28;20089;-68
2023/05/25 02:01:42;;;;;;;60.65;19.02;;;;;;;-144.73;100.00;54452.84;5091966;28;20047;-68
2023/05/25 02:04:08;;;;;;;54.83;17.85;;;;;;;-144.73;100.00;54417.97;5094462;28;20049;-68
2023/05/25 02:06:37;;;;;;;59.45;19.33;;;;;;;-144.73;100.00;54456.97;5095317;28;20061;-68
2023/05/25 02:09:03;;;;;;;60.33;19.33;;;;;;;-144.73;100.00;54430.28;5095978;28;20027;-68
2023/05/25 02:11:28;;;;;;;55.92;18.23;;;;;;;-144.73;100.00;54424.13;5113797;28;20055;-69
2023/05/25 02:13:54;;;;;;;67.05;21.38;;;;;;;-144.73;100.00;54444.66;5095765;28;20066;-68
2023/05/25 02:16:19;;;;;;;63.10;21.10;;;;;;;-144.73;100.00;54432.31;5095473;28;20123;-68
2023/05/25 02:18:44;;;;;;;62.83;20.38;;;;;;;-144.73;100.00;54440.53;5096405;28;20038;-68
2023/05/25 02:21:10;;;;;;;57.65;20.75;;;;;;;-144.73;100.00;54461.06;5095290;28;20032;-68
2023/05/25 02:23:36;;;;;;;74.03;20.60;;;;;;;-144.73;100.00;54440.53;5095827;28;20035;-68
2023/05/25 02:26:01;;;;;;;52.80;20.70;;;;;;;-144.73;100.00;54461.06;5095096;28;20043;-68
2023/05/25 02:28:26;;;;;;;58.30;21.58;;;;;;;-144.73;100.00;54436.44;5095615;28;20462;-68
2023/05/25 02:30:52;;;;;;;64.95;21.23;;;;;;;-144.73;100.00;54473.38;5095441;28;20088;-68
2023/05/25 02:33:17;;;;;;;69.70;23.42;;;;;;;-144.73;100.00;54417.97;5095358;28;20106;-68
2023/05/25 02:35:43;;;;;;;71.70;24.65;;;;;;;-144.73;100.00;54428.22;5095133;28;20031;-68
2023/05/25 02:38:08;;;;;;;55.92;20.83;;;;;;;-144.73;100.00;54493.91;5095508;28;20028;-68
2023/05/25 02:40:34;;;;;;;68.22;21.05;;;;;;;-144.73;100.00;54461.06;5094715;28;20035;-68
2023/05/25 02:42:59;;;;;;;67.18;23.17;;;;;;;-144.73;100.00;54481.59;5094928;28;20027;-68
2023/05/25 02:45:25;;;;;;;63.22;21.35;;;;;;;-144.73;100.00;54473.38;5095159;28;20118;-68
2023/05/25 02:47:50;;;;;;;60.65;22.40;;;;;;;-144.73;100.00;54430.28;5095261;28;20024;-69
2023/05/25 02:50:15;;;;;;;53.80;21.52;;;;;;;-144.73;100.00;54440.53;5113120;28;20397;-68
2023/05/25 02:52:41;;;;;;;64.85;22.42;;;;;;;-144.73;100.00;54473.38;5113337;28;20023;-68
2023/05/25 02:55:09;;;;;;;70.95;23.90;;;;;;;-144.73;100.00;54428.22;5094768;28;20035;-68
2023/05/25 02:57:35;;;;;;;82.18;23.98;;;;;;;-144.73;100.00;54440.53;5113369;28;20038;-68
2023/05/25 03:00:01;;;;;;;58.15;21.73;;;;;;;-144.73;100.00;54448.75;5113100;28;20040;-68
2023/05/25 03:02:27;;;;;;;72.28;23.25;;;;;;;-144.73;100.00;54428.22;5094533;28;20020;-69
2023/05/25 03:04:53;;;;;;;74.50;22.42;;;;;;;-144.73;100.00;54438.50;5112364;28;20110;-68
2023/05/25 03:07:20;;;;;;;70.60;22.35;;;;;;;-144.73;100.00;54454.91;5113663;28;20111;-68
2023/05/25 03:09:45;;;;;;;64.18;21.75;;;;;;;-144.73;100.00;54448.75;5094582;28;20043;-68
2023/05/25 03:12:10;;;;;;;64.85;22.48;;;;;;;-144.73;100.00;54440.53;5095134;28;20073;-69
2023/05/25 03:14:36;;;;;;;60.30;21.50;;;;;;;-144.73;100.00;54481.59;5112633;28;20051;-69
2023/05/25 03:17:01;;;;;;;58.92;22.15;;;;;;;-144.73;100.00;54493.91;5112002;28;20063;-69
2023/05/25 03:19:26;;;;;;;61.42;21.90;;;;;;;-144.73;100.00;54444.66;5112618;28;20081;-69
2023/05/25 03:21:52;;;;;;;68.55;21.48;;;;;;;-144.73;100.00;54452.84;5093936;28;20116;-69
2023/05/25 03:24:17;;;;;;;77.85;21.50;;;;;;;-144.73;100.00;54440.53;5112919;28;20030;-69
2023/05/25 03:26:42;;;;;;;62.60;20.92;;;;;;;-144.73;100.00;54469.28;5112365;28;20036;-69
2023/05/25 03:29:08;;;;;;;65.15;21.83;;;;;;;-144.73;100.00;54465.16;5094702;28;20106;-69
2023/05/25 03:31:33;;;;;;;64.78;22.35;;;;;;;-144.73;100.00;54469.28;5112042;28;20035;-69
2023/05/25 03:33:59;;;;;;;61.75;20.35;;;;;;;-144.73;100.00;54434.38;5094300;28;20072;-68
2023/05/25 03:36:29;;;;;;;71.15;21.42;;;;;;;-144.73;100.00;54481.59;5094129;28;20042;-69
2023/05/25 03:38:55;;;;;;;53.85;22.67;;;;;;;-144.73;100.00;54514.44;5111723;28;20051;-68
2023/05/25 03:41:20;;;;;;;56.80;20.10;;;;;;;-144.73;100.00;54473.38;5112258;28;20070;-69
2023/05/25 03:43:46;;;;;;;56.75;21.98;;;;;;;-144.73;100.00;54465.16;5094156;28;20077;-69
2023/05/25 03:46:11;;;;;;;56.40;20.83;;;;;;;-144.73;100.00;54461.06;5112134;28;20142;-68
2023/05/25 03:48:37;;;;;;;60.80;20.35;;;;;;;-144.73;100.00;54456.97;5094248;28;20039;-67
2023/05/25 03:51:02;;;;;;;61.40;20.85;;;;;;;-144.73;100.00;54473.38;5111567;28;20039;-67
2023/05/25 03:53:27;;;;;;;44.20;19.20;;;;;;;-144.73;100.00;54495.97;5112638;28;20028;-68
2023/05/25 03:55:53;;;;;;;57.38;21.65;;;;;;;-144.73;100.00;54452.84;5111745;28;20032;-68
2023/05/25 03:58:18;;;;;;;52.28;18.65;;;;;;;-144.73;100.00;54452.84;5111759;28;20032;-68
2023/05/25 04:00:44;;;;;;;56.92;22.48;;;;;;;-144.73;100.00;54432.31;5111580;28;20163;-68
2023/05/25 04:03:09;;;;;;;50.72;18.80;;;;;;;-144.73;100.00;54477.47;5111869;28;20023;-69
2023/05/25 04:05:35;;;;;;;51.38;18.40;;;;;;;-144.73;100.00;54461.06;5093198;28;20039;-68
2023/05/25 04:08:02;;;;;;;48.20;17.75;;;;;;;-144.73;100.00;54483.66;5093555;28;20028;-69
2023/05/25 04:10:27;;;;;;;57.97;19.90;;;;;;;-144.73;100.00;54436.44;5111919;28;20097;-68
2023/05/25 04:12:55;;;;;;;58.40;21.23;;;;;;;-144.73;100.00;54469.28;5111710;28;20023;-68
2023/05/25 04:15:21;;;;;;;49.42;19.27;;;;;;;-144.73;100.00;54448.75;5110930;28;20418;-68
2023/05/25 04:17:46;;;;;;;56.15;19.75;;;;;;;-144.73;100.00;54444.66;5093907;28;20031;-69
2023/05/25 04:20:12;;;;;;;55.50;18.92;;;;;;;-144.73;100.00;54498.00;5111099;28;20114;-69
2023/05/25 04:22:40;;;;;;;45.97;16.23;;;;;;;-144.73;100.00;54444.66;5093933;28;20114;-69
2023/05/25 04:25:06;;;;;;;44.33;17.73;;;;;;;-144.73;100.00;54395.38;5092706;28;20436;-69
2023/05/25 04:27:32;;;;;;;40.38;16.83;;;;;;;-144.73;100.00;54487.75;5110588;28;20020;-68
2023/05/25 04:29:57;;;;;;;47.58;16.67;;;;;;;-144.73;100.00;54485.69;5110832;28;20035;-68
2023/05/25 04:32:23;;;;;;;42.30;13.55;;;;;;;-144.73;100.00;54518.53;5110914;28;20032;-68
2023/05/25 04:34:49;;;;;;;43.13;14.35;;;;;;;-144.73;100.00;54420.00;5092640;28;20106;-68
2023/05/25 04:37:16;;;;;;;41.15;12.80;;;;;;;-144.73;100.00;54444.66;5111694;28;20047;-68
2023/05/25 04:39:41;;;;;;;47.65;14.60;;;;;;;-144.73;100.00;54469.28;5092624;28;20084;-68
2023/05/25 04:42:06;;;;;;;45.88;13.55;;;;;;;-144.73;100.00;54479.53;5093433;28;20114;-69
2023/05/25 04:44:32;;;;;;;34.53;13.23;;;;;;;-144.73;100.00;54469.28;5092967;28;20088;-68
2023/05/25 04:47:00;;;;;;;44.38;15.10;;;;;;;-144.73;100.00;54461.06;5111084;28;20035;-69
2023/05/25 04:49:26;;;;;;;34.25;11.73;;;;;;;-144.73;100.00;54465.16;5093087;28;20027;-68
2023/05/25 04:51:51;;;;;;;38.65;11.57;;;;;;;-144.73;100.00;54456.97;5092417;28;20125;-68
2023/05/25 04:54:17;;;;;;;49.20;12.30;;;;;;;-144.73;100.00;54411.81;5092810;28;20019;-68
2023/05/25 04:56:42;;;;;;;35.45;12.45;;;;;;;-144.73;100.00;54473.38;5092628;28;20562;-69
2023/05/25 04:59:08;;;;;;;40.03;11.57;;;;;;;-144.73;100.00;54485.69;5092724;28;20035;-69
2023/05/25 05:01:39;;;;;;;38.63;11.57;;;;;;;-144.73;100.00;54469.28;5092298;28;20031;-68
2023/05/25 05:04:05;;;;;;;44.75;11.45;;;;;;;-144.73;100.00;54452.84;5093073;28;20028;-69
2023/05/25 05:06:31;;;;;;;33.05;10.32;;;;;;;-144.73;100.00;54442.59;5110529;28;20040;-68
2023/05/25 05:08:56;;;;;;;38.75;11.02;;;;;;;-144.73;100.00;54477.47;5092525;28;20041;-69
2023/05/25 05:11:22;;;;;;;29.77;9.48;;;;;;;-144.73;100.00;54440.53;5110358;28;20115;-69
2023/05/25 05:13:47;;;;;;;39.40;11.77;;;;;;;-144.73;100.00;54506.22;5092461;28;20019;-68
2023/05/25 05:16:13;;;;;;;35.00;10.35;;;;;;;-144.73;100.00;54440.53;5092240;28;20042;-69
2023/05/25 05:18:38;;;;;;;42.00;10.48;;;;;;;-144.73;100.00;54463.13;5092649;28;20066;-69
2023/05/25 05:21:03;;;;;;;43.47;10.82;;;;;;;-144.73;100.00;54461.06;5092683;28;20027;-69
2023/05/25 05:23:29;;;;;;;34.35;9.88;;;;;;;-144.73;100.00;54502.13;5110539;28;20028;-68
2023/05/25 05:25:54;;;;;;;34.97;9.80;;;;;;;-144.73;100.00;54477.47;5091280;28;20036;-69
2023/05/25 05:28:20;;;;;;;30.27;10.05;;;;;;;-144.73;100.00;54420.00;5111111;28;20019;-69
2023/05/25 05:30:46;;;;;;;35.75;10.05;;;;;;;-144.73;100.00;54473.38;5091998;28;20502;-69
2023/05/25 05:33:12;;;;;;;38.60;9.27;;;;;;;-144.73;100.00;54452.84;5110992;28;20046;-69
2023/05/25 05:35:37;;;;;;;32.33;8.80;;;;;;;-144.73;100.00;54506.22;5092373;28;20028;-69
2023/05/25 05:38:03;;;;;;;36.05;9.45;;;;;;;-144.73;100.00;54493.91;5093574;28;20031;-69
2023/05/25 05:40:29;;;;;;;39.25;8.50;;;;;;;-144.73;100.00;54456.97;5096865;28;20069;-69
2023/05/25 05:42:54;;;;;;;36.00;8.68;;;;;;;-144.73;100.00;54498.00;5096157;28;20023;-70
2023/05/25 05:45:20;;;;;;;23.98;7.50;;;;;;;-144.73;100.00;54452.84;5096398;28;20095;-69
2023/05/25 05:47:45;;;;;;;39.10;8.35;;;;;;;-144.73;100.00;54432.31;5096682;28;20081;-69
2023/05/25 05:50:10;;;;;;;37.85;8.10;;;;;;;-144.73;100.00;54461.06;5096448;28;20028;-69
2023/05/25 05:52:36;;;;;;;33.03;8.25;;;;;;;-144.73;100.00;54428.22;5096363;28;20028;-69
2023/05/25 05:55:01;;;;;;;31.98;8.88;;;;;;;-144.73;100.00;54456.97;5095991;28;20130;-69
2023/05/25 05:57:27;;;;;;;38.30;9.25;;;;;;;-144.73;100.00;54473.38;5114903;28;20058;-69
2023/05/25 05:59:53;;;;;;;36.22;8.15;;;;;;;-144.73;100.00;54436.44;5095715;28;20387;-69
2023/05/25 06:02:18;;;;;;;37.45;8.15;;;;;;;-144.73;100.00;54448.75;5095968;28;20466;-68
2023/05/25 06:04:43;;;;;;;41.75;8.88;;;;;;;-144.73;100.00;54436.44;5096013;28;20024;-68
2023/05/25 06:07:08;;;;;;;40.80;7.32;;;;;;;-144.73;100.00;54436.44;5096603;28;20015;-69
2023/05/25 06:09:34;;;;;;;40.35;7.95;;;;;;;-144.73;100.00;54452.84;5096130;28;20046;-68
2023/05/25 06:12:00;;;;;;;44.78;9.10;;;;;;;-144.73;100.00;54469.28;5095750;28;20031;-69
2023/05/25 06:14:25;;;;;;;37.42;8.05;;;;;;;-144.73;100.00;54442.59;5095688;28;20020;-70
2023/05/25 06:16:51;;;;;;;29.50;6.68;;;;;;;-144.73;100.00;54469.28;5095535;28;20046;-69
2023/05/25 06:19:16;;;;;;;30.73;6.75;;;;;;;-144.73;100.00;54485.69;5095694;28;20028;-69
2023/05/25 06:21:41;;;;;;;33.47;7.47;;;;;;;-144.73;100.00;54440.53;5113837;28;20047;-69
2023/05/25 06:24:07;;;;;;;36.08;7.47;;;;;;;-144.73;100.00;54477.47;5095890;28;20023;-69
2023/05/25 06:26:32;;;;;;;40.55;7.03;;;;;;;-144.73;100.00;54481.59;5095880;28;20043;-69
2023/05/25 06:28:57;;;;;;;33.42;6.95;;;;;;;-144.73;100.00;54428.22;5113931;28;20019;-70
2023/05/25 06:31:23;;;;;;;40.05;7.75;;;;;;;-144.73;100.00;54440.53;5095518;28;20367;-68
2023/05/25 06:33:48;;;;;;;32.47;7.97;;;;;;;-144.73;100.00;54436.44;5114157;28;20027;-68
2023/05/25 06:36:14;;;;;;;41.38;8.07;;;;;;;-144.73;100.00;54448.75;5113527;28;20043;-69
2023/05/25 06:38:40;;;;;;;33.50;6.85;;;;;;;-144.73;100.00;54428.22;5096120;28;20042;-68
2023/05/25 06:41:06;;;;;;;44.15;7.70;;;;;;;-144.73;100.00;54428.22;5095146;28;20490;-68
2023/05/25 06:43:32;;;;;;;31.20;7.10;;;;;;;-144.73;100.00;54407.69;5113859;28;20028;-69
2023/05/25 06:45:57;;;;;;;43.35;7.78;;;;;;;-144.73;100.00;54477.47;5095309;28;20394;-69
2023/05/25 06:48:23;;;;;;;37.25;7.15;;;;;;;-144.73;100.00;54489.81;5095295;28;20079;-68
2023/05/25 06:50:48;;;;;;;43.55;8.00;;;;;;;-144.73;100.00;54444.66;5094066;28;20038;-68
2023/05/25 06:53:14;;;;;;;31.83;7.03;;;;;;;-144.73;100.00;54477.47;5114033;28;20031;-69
2023/05/25 06:55:40;;;;;;;37.70;6.97;;;;;;;-144.73;100.00;54444.66;5094823;28;20059;-70
2023/05/25 06:58:05;;;;;;;35.58;7.63;;;;;;;-144.73;100.00;54456.97;5095732;28;20032;-70
2023/05/25 07:00:30;;;;;;;36.28;8.57;;;;;;;-144.73;100.00;54473.38;5108937;28;20111;-70
2023/05/25 07:02:56;;;;;;;42.63;7.47;;;;;;;-144.73;100.00;54452.84;5082849;28;20026;-70
2023/05/25 07:05:21;;;;;;;34.55;8.05;;;;;;;-144.73;100.00;54448.75;5079561;28;20051;-69
2023/05/25 07:07:47;;;;;;;42.00;7.80;;;;;;;-144.73;100.00;54489.81;5068541;28;20054;-68
2023/05/25 07:10:12;;;;;;;41.75;7.28;;;;;;;-144.73;100.00;54440.53;5070536;28;20038;-69
2023/05/25 07:12:37;;;;;;;31.73;6.82;;;;;;;-144.73;100.00;54446.69;5068464;28;20020;-68
2023/05/25 07:15:03;;;;;;;33.88;7.15;;;;;;;-144.73;100.00;54393.34;5069140;28;20032;-68
2023/05/25 07:17:30;;;;;;;34.05;7.13;;;;;;;-144.73;100.00;54450.81;5087430;28;20077;-69
2023/05/25 07:19:55;;;;;;;40.67;7.20;;;;;;;-144.73;100.00;54473.38;5068758;28;20115;-70
2023/05/25 07:22:22;;;;;;;35.38;6.90;;;;;;;-144.73;100.00;54428.22;5085349;28;20103;-70
2023/05/25 07:24:48;;;;;;;33.15;6.68;;;;;;;-144.73;96.70;54436.44;5096000;28;20023;-68
2023/05/25 07:27:14;;;;;;;44.20;7.20;;;;;;;-144.73;94.08;54411.81;5088506;28;20027;-69
2023/05/25 07:29:39;;;;;;;39.33;6.75;;;;;;;-144.73;96.76;54424.13;5086622;28;20088;-69
2023/05/25 07:32:05;;;;;;;35.72;6.03;;;;;;;-144.73;97.37;54448.75;5068105;28;20036;-69
2023/05/25 07:34:32;;;;;;;41.35;7.00;;;;;;;-144.73;94.73;54407.69;5065928;28;20386;-69
2023/05/25 07:36:58;;;;;;;40.65;7.40;;;;;;;-144.73;91.97;54407.69;5096646;27;20043;-70
2023/05/25 07:39:23;;;;;;;31.77;6.13;;;;;;;-144.73;88.78;54440.53;5100087;28;20031;-68
2023/05/25 07:41:48;;;;;;;26.75;6.45;;;;;;;-144.73;92.08;54391.28;5102015;28;20044;-68
2023/05/25 07:44:13;;;;;;;44.55;8.70;;;;;;;-144.73;93.35;54407.69;5088375;28;20035;-68
2023/05/25 07:46:39;;;;;;;34.25;6.63;;;;;;;-144.73;93.18;54407.69;5090649;28;20051;-69
2023/05/25 07:49:10;;;;;;;30.75;7.65;;;;;;;-144.73;92.67;54452.84;5068396;28;20032;-69
2023/05/25 07:51:36;;;;;;;31.58;6.38;;;;;;;-144.73;93.85;54434.38;5084157;28;20028;-69
2023/05/25 07:54:01;;;;;;;32.20;7.03;;;;;;;-144.73;92.77;54440.53;5089549;28;20016;-69
2023/05/25 07:56:27;;;;;;;34.38;7.00;;;;;;;-144.73;94.88;54444.66;5087694;28;20042;-68
2023/05/25 07:58:52;;;;;;;38.00;7.68;;;;;;;-144.73;95.22;54461.06;5088976;28;20084;-68
2023/05/25 08:01:18;;;;;;;39.53;7.15;;;;;;;-144.73;93.75;54428.22;5092169;28;20060;-68
2023/05/25 08:03:43;;;;;;;35.22;7.65;;;;;;;-144.73;90.49;54438.50;5060193;28;20039;-69
2023/05/25 08:06:09;;;;;;;46.50;7.57;;;;;;;-144.73;87.93;54395.38;5067556;28;20070;-69
2023/05/25 08:08:36;;;;;;;42.97;8.30;;;;;;;-144.73;87.65;54407.69;5085851;28;20048;-69
2023/05/25 08:11:01;;;;;;;34.35;6.85;;;;;;;-144.73;83.83;54374.84;5087585;28;20062;-68
2023/05/25 08:13:27;;;;;;;38.17;7.82;;;;;;;-144.73;84.50;54387.19;5077455;28;20057;-69
2023/05/25 08:15:52;;;;;;;38.08;7.78;;;;;;;-144.73;79.99;54415.91;5069198;28;20028;-69
2023/05/25 08:18:18;;;;;;;32.97;7.85;;;;;;;-144.73;79.88;54432.31;5083867;28;20035;-69
2023/05/25 08:20:43;;;;;;;34.60;6.82;;;;;;;-144.73;82.34;54399.50;5087960;28;20075;-69
2023/05/25 08:23:09;;;;;;;38.50;7.35;;;;;;;-144.73;80.89;54409.75;5096109;27;20023;-69
2023/05/25 08:25:34;;;;;;;39.92;7.18;;;;;;;-144.73;80.21;54417.97;5113605;27;20037;-69
2023/05/25 08:28:00;;;;;;;37.55;8.27;;;;;;;-144.73;80.30;54424.13;5102891;27;20026;-69
2023/05/25 08:30:25;;;;;;;34.45;7.30;;;;;;;-144.73;82.53;54426.16;5101655;28;20520;-68
2023/05/25 08:32:50;;;;;;;39.47;7.70;;;;;;;-144.73;78.55;54391.28;5091647;28;20028;-69
2023/05/25 08:35:16;;;;;;;35.03;6.10;;;;;;;-144.73;76.13;54389.22;5107371;27;20055;-69
2023/05/25 08:37:42;;;;;;;34.38;6.45;;;;;;;-144.73;74.17;54428.22;5105373;28;20023;-69
2023/05/25 08:40:13;;;;;;;35.38;7.97;;;;;;;-144.73;75.68;54381.00;5106304;27;20035;-69
2023/05/25 08:42:40;;;;;;;;;;;;;;;-144.73;73.49;54411.81;5096842;28;20051;-69
2023/05/25 08:45:07;;;;;;;40.67;7.10;;;;;;;-144.73;76.95;54374.84;5086861;28;19915;-70
2023/05/25 08:47:42;;;;;;;36.80;7.68;;;;;;;-144.73;75.15;54370.75;5088454;28;20020;-70
2023/05/25 08:50:09;;;;;;;41.67;8.93;;;;;;;-144.73;72.21;54395.38;5085294;28;20032;-70
2023/05/25 08:52:37;;;;;;;39.83;8.18;;;;;;;-144.73;72.04;54391.28;5086940;28;20026;-68
2023/05/25 08:55:05;;;;;;;43.03;7.93;;;;;;;-144.73;72.26;54395.38;5094697;28;20032;-68
2023/05/25 08:57:59;;;;;;;42.13;8.07;;;;;;;-144.73;69.68;54366.66;5072322;28;20143;-68
2023/05/25 09:00:30;;;;;;;38.88;7.47;;;;;;;-144.73;67.03;54399.50;5099301;28;20034;-69
2023/05/25 09:03:10;;;;;;;42.53;6.88;;;;;;;-144.73;66.66;54381.00;5085615;28;20015;-69
2023/05/25 09:05:36;;;;;;;38.38;7.32;;;;;;;-144.73;68.59;54383.06;5081299;28;20044;-68
2023/05/25 09:08:05;;;;;;;38.55;7.40;;;;;;;-144.73;68.30;54374.84;5098392;28;20024;-69
2023/05/25 09:10:33;;;;;;;41.63;7.93;;;;;;;-144.73;69.28;54354.34;5086834;28;20032;-69
2023/05/25 09:13:00;;;;;;;41.97;7.85;;;;;;;-144.73;67.79;54387.19;5084566;28;20112;-69
2023/05/25 09:15:26;;;;;;;28.13;7.32;;;;;;;-144.73;70.36;54397.44;5085202;28;20033;-68
2023/05/25 09:17:51;;;;;;;54.90;9.15;;;;;;;-144.73;69.96;54391.28;5084264;28;20027;-68
2023/05/25 09:20:18;;;;;;;38.38;6.93;;;;;;;-144.73;70.39;54415.91;5062731;28;20036;-68
2023/05/25 09:22:44;;;;;;;40.40;8.00;;;;;;;-144.73;67.08;54374.84;5084718;28;20043;-68
2023/05/25 09:25:11;;;;;;;41.67;7.63;;;;;;;-144.73;66.59;54395.38;5071641;28;20571;-68
2023/05/25 09:27:37;;;;;;;33.13;6.72;;;;;;;-144.73;63.89;54391.28;5095200;28;20024;-68
2023/05/25 09:30:04;;;;;;;33.72;8.23;;;;;;;-144.73;63.38;54368.69;5087586;28;20087;-68
2023/05/25 09:32:30;;;;;;;51.67;8.30;;;;;;;-144.73;62.53;54387.19;5084436;28;20020;-68
2023/05/25 09:35:05;;;;;;;36.65;6.97;;;;;;;-144.73;66.00;54368.69;5083487;28;20026;-68
2023/05/25 09:37:30;;;;;;;41.20;8.23;;;;;;;-144.73;66.04;54436.44;5083967;28;20020;-68
2023/05/25 09:39:56;;;;;;;43.88;8.90;;;;;;;-144.73;66.28;54385.13;5082899;28;20030;-69
2023/05/25 09:42:22;;;;;;;39.78;8.43;;;;;;;-144.73;66.95;54407.69;5085198;28;20035;-69
2023/05/25 09:44:48;;;;;;;45.78;8.18;;;;;;;-144.73;65.48;54358.44;5083333;28;20128;-69
2023/05/25 09:47:15;;;;;;;36.45;8.18;;;;;;;-144.73;61.63;54370.75;5083889;28;20028;-69
2023/05/25 09:49:43;;;;;;;39.95;7.45;;;;;;;-144.73;61.73;54374.84;5083316;28;20099;-69
2023/05/25 09:52:10;;;;;;;32.70;7.13;;;;;;;-144.73;58.95;54354.34;5117014;28;20114;-68
2023/05/25 09:54:37;;;;;;;28.75;6.30;;;;;;;-144.73;58.44;54420.00;5096412;28;20023;-68
2023/05/25 09:57:04;;;;;;;44.25;7.13;;;;;;;-144.73;58.80;54337.91;5086122;28;20035;-68
2023/05/25 09:59:29;;;;;;;35.58;6.95;;;;;;;-144.73;57.97;54387.19;5110295;28;20030;-68
2023/05/25 10:01:55;;;;;;;40.38;7.45;;;;;;;-144.73;58.89;54362.53;5102415;28;20047;-68
2023/05/25 10:04:21;;;;;;;39.47;7.82;;;;;;;-144.73;56.84;54362.53;5113104;28;20023;-69
2023/05/25 10:06:48;;;;;;;35.35;7.43;;;;;;;-144.73;57.95;54383.06;5107028;28;20028;-70
2023/05/25 10:09:19;;;;;;;37.50;8.18;;;;;;;-144.73;55.70;54389.22;5104590;28;20111;-69
2023/05/25 10:11:46;;;;;;;42.15;7.90;;;;;;;-144.73;59.52;54378.97;5096894;28;20039;-69
2023/05/25 10:14:18;;;;;;;35.85;8.38;;;;;;;-144.73;59.32;54374.84;5066862;28;20032;-69
2023/05/25 10:16:49;;;;;;;41.88;8.75;;;;;;;-144.73;57.17;54366.66;5084247;28;20036;-68
2023/05/25 10:19:41;;;;;;;37.92;7.07;;;;;;;-144.73;59.25;54395.38;5066532;28;20024;-68
2023/05/25 10:22:28;;;;;;;44.03;8.52;;;;;;;-144.73;57.30;54370.75;5085224;28;20044;-68
2023/05/25 10:25:10;;;;;;;48.40;8.77;;;;;;;-144.73;56.65;54368.69;5100880;28;20028;-69
2023/05/25 10:27:41;;;;;;;42.92;8.10;;;;;;;-144.73;58.38;54366.66;5078085;28;20016;-69
2023/05/25 10:30:12;;;;;;;;;;;;;;;-144.73;56.97;54370.75;5096158;28;20034;-69
2023/05/25 10:32:38;;;;;;;39.55;7.78;;;;;;;-144.73;56.94;54329.72;5102323;28;19912;-69
2023/05/25 10:35:07;;;;;;;42.90;7.93;;;;;;;-144.73;57.07;54407.69;5085763;28;20031;-69
2023/05/25 10:37:34;;;;;;;39.95;7.75;;;;;;;-144.73;54.93;54399.50;5085057;28;20036;-68
2023/05/25 10:40:00;;;;;;;26.40;6.60;;;;;;;-144.73;51.82;54389.22;5079856;28;20040;-69
2023/05/25 10:42:29;;;;;;;34.88;8.13;;;;;;;-144.73;54.15;54362.53;5072902;28;20110;-68
2023/05/25 10:44:55;;;;;;;37.92;8.73;;;;;;;-144.73;55.63;54370.75;5078887;28;20070;-69
2023/05/25 10:47:22;;;;;;;38.72;7.13;;;;;;;-144.73;54.75;54362.53;5078863;28;20024;-69
2023/05/25 10:49:53;;;;;;;35.35;8.07;;;;;;;-144.73;52.41;54362.53;5085184;28;20028;-69
2023/05/25 10:52:19;;;;;;;33.72;7.00;;;;;;;-144.73;51.25;54391.28;5078381;28;20071;-70
2023/05/25 10:54:46;;;;;;;29.10;7.07;;;;;;;-144.73;52.13;54342.03;5075653;28;20024;-70
2023/05/25 10:57:19;;;;;;;33.28;7.35;;;;;;;-144.73;53.38;54387.19;5099719;28;20024;-69
2023/05/25 10:59:53;;;;;;;40.28;8.13;;;;;;;-144.73;51.98;54391.28;5094932;28;20359;-69